sensor_id;sensor_type;location;lat;lon;timestamp;P1;durP1;ratioP1;P2;durP2;ratioP2
10596;SDS011;5346;48.766;8.674;2023-04-29T00:02:12;5.75;;;5.05;;
10596;SDS011;5346;48.766;8.674;2023-04-29T00:04:40;7.05;;;5.60;;
10596;SDS011;5346;48.766;8.674;2023-04-29T00:07:14;7.03;;;6.32;;
10596;SDS011;5346;48.766;8.674;2023-04-29T00:09:47;8.57;;;6.35;;
10596;SDS011;5346;48.766;8.674;2023-04-29T00:12:14;6.68;;;5.82;;
10596;SDS011;5346;48.766;8.674;2023-04-29T00:14:49;9.25;;;5.85;;
10596;SDS011;5346;48.766;8.674;2023-04-29T00:17:16;7.47;;;5.60;;
10596;SDS011;5346;48.766;8.674;2023-04-29T00:19:58;7.60;;;5.82;;
10596;SDS011;5346;48.766;8.674;2023-04-29T00:22:31;9.55;;;6.93;;
10596;SDS011;5346;48.766;8.674;2023-04-29T00:25:11;7.43;;;6.18;;
10596;SDS011;5346;48.766;8.674;2023-04-29T00:27:45;8.20;;;6.38;;
10596;SDS011;5346;48.766;8.674;2023-04-29T00:30:12;7.85;;;6.78;;
10596;SDS011;5346;48.766;8.674;2023-04-29T00:32:46;10.05;;;6.63;;
10596;SDS011;5346;48.766;8.674;2023-04-29T00:35:14;9.73;;;6.90;;
10596;SDS011;5346;48.766;8.674;2023-04-29T00:37:48;11.00;;;7.35;;
10596;SDS011;5346;48.766;8.674;2023-04-29T00:40:15;8.70;;;7.60;;
10596;SDS011;5346;48.766;8.674;2023-04-29T00:42:49;9.52;;;7.00;;
10596;SDS011;5346;48.766;8.674;2023-04-29T00:45:16;8.40;;;6.57;;
10596;SDS011;5346;48.766;8.674;2023-04-29T00:47:50;9.05;;;7.00;;
10596;SDS011;5346;48.766;8.674;2023-04-29T00:50:18;11.70;;;7.18;;
10596;SDS011;5346;48.766;8.674;2023-04-29T00:52:54;10.05;;;7.30;;
10596;SDS011;5346;48.766;8.674;2023-04-29T00:55:21;11.15;;;6.93;;
10596;SDS011;5346;48.766;8.674;2023-04-29T00:57:56;10.38;;;6.85;;
10596;SDS011;5346;48.766;8.674;2023-04-29T01:00:32;9.63;;;6.72;;
10596;SDS011;5346;48.766;8.674;2023-04-29T01:03:07;8.80;;;6.20;;
10596;SDS011;5346;48.766;8.674;2023-04-29T01:05:42;8.70;;;7.00;;
10596;SDS011;5346;48.766;8.674;2023-04-29T01:11:18;9.32;;;6.97;;
10596;SDS011;5346;48.766;8.674;2023-04-29T01:13:58;9.80;;;7.57;;
10596;SDS011;5346;48.766;8.674;2023-04-29T01:16:36;8.88;;;6.47;;
10596;SDS011;5346;48.766;8.674;2023-04-29T01:19:33;8.50;;;7.25;;
10596;SDS011;5346;48.766;8.674;2023-04-29T01:22:20;10.18;;;6.60;;
10596;SDS011;5346;48.766;8.674;2023-04-29T01:24:54;13.35;;;8.15;;
10596;SDS011;5346;48.766;8.674;2023-04-29T01:27:30;9.43;;;7.40;;
10596;SDS011;5346;48.766;8.674;2023-04-29T01:30:16;8.77;;;7.45;;
10596;SDS011;5346;48.766;8.674;2023-04-29T01:33:43;10.23;;;6.85;;
10596;SDS011;5346;48.766;8.674;2023-04-29T01:36:32;7.72;;;6.90;;
10596;SDS011;5346;48.766;8.674;2023-04-29T01:42:03;12.27;;;7.68;;
10596;SDS011;5346;48.766;8.674;2023-04-29T01:44:48;7.60;;;6.78;;
10596;SDS011;5346;48.766;8.674;2023-04-29T01:47:26;8.38;;;7.20;;
10596;SDS011;5346;48.766;8.674;2023-04-29T01:49:55;9.70;;;7.03;;
10596;SDS011;5346;48.766;8.674;2023-04-29T01:52:28;10.80;;;6.72;;
10596;SDS011;5346;48.766;8.674;2023-04-29T01:54:56;8.32;;;6.13;;
10596;SDS011;5346;48.766;8.674;2023-04-29T01:57:29;9.77;;;6.70;;
10596;SDS011;5346;48.766;8.674;2023-04-29T01:59:56;8.60;;;6.53;;
10596;SDS011;5346;48.766;8.674;2023-04-29T02:02:30;7.82;;;6.22;;
10596;SDS011;5346;48.766;8.674;2023-04-29T02:04:58;8.68;;;5.47;;
10596;SDS011;5346;48.766;8.674;2023-04-29T02:07:31;9.15;;;6.13;;
10596;SDS011;5346;48.766;8.674;2023-04-29T02:10:06;7.38;;;5.97;;
10596;SDS011;5346;48.766;8.674;2023-04-29T02:12:39;8.27;;;5.70;;
10596;SDS011;5346;48.766;8.674;2023-04-29T02:15:20;7.50;;;5.60;;
10596;SDS011;5346;48.766;8.674;2023-04-29T02:18:00;7.53;;;5.82;;
10596;SDS011;5346;48.766;8.674;2023-04-29T02:20:34;7.47;;;5.60;;
10596;SDS011;5346;48.766;8.674;2023-04-29T02:23:01;7.63;;;5.10;;
10596;SDS011;5346;48.766;8.674;2023-04-29T02:25:35;7.43;;;4.72;;
10596;SDS011;5346;48.766;8.674;2023-04-29T02:28:03;5.07;;;4.57;;
10596;SDS011;5346;48.766;8.674;2023-04-29T02:30:36;5.73;;;4.40;;
10596;SDS011;5346;48.766;8.674;2023-04-29T02:33:10;4.95;;;3.95;;
10596;SDS011;5346;48.766;8.674;2023-04-29T02:35:46;8.45;;;3.75;;
10596;SDS011;5346;48.766;8.674;2023-04-29T02:38:13;5.72;;;4.10;;
10596;SDS011;5346;48.766;8.674;2023-04-29T02:40:46;7.65;;;4.00;;
10596;SDS011;5346;48.766;8.674;2023-04-29T02:43:20;6.90;;;3.78;;
10596;SDS011;5346;48.766;8.674;2023-04-29T02:45:54;5.10;;;3.90;;
10596;SDS011;5346;48.766;8.674;2023-04-29T02:48:22;4.57;;;4.07;;
10596;SDS011;5346;48.766;8.674;2023-04-29T02:50:55;7.85;;;4.63;;
10596;SDS011;5346;48.766;8.674;2023-04-29T02:53:28;5.23;;;4.10;;
10596;SDS011;5346;48.766;8.674;2023-04-29T02:55:56;6.22;;;4.68;;
10596;SDS011;5346;48.766;8.674;2023-04-29T02:58:29;5.88;;;4.07;;
10596;SDS011;5346;48.766;8.674;2023-04-29T03:01:04;5.00;;;3.97;;
10596;SDS011;5346;48.766;8.674;2023-04-29T03:03:38;8.38;;;4.60;;
10596;SDS011;5346;48.766;8.674;2023-04-29T03:06:05;6.80;;;4.30;;
10596;SDS011;5346;48.766;8.674;2023-04-29T03:08:32;5.35;;;4.55;;
10596;SDS011;5346;48.766;8.674;2023-04-29T03:11:07;6.25;;;3.90;;
10596;SDS011;5346;48.766;8.674;2023-04-29T03:13:41;5.17;;;4.67;;
10596;SDS011;5346;48.766;8.674;2023-04-29T03:16:08;7.13;;;4.97;;
10596;SDS011;5346;48.766;8.674;2023-04-29T03:18:48;5.30;;;4.68;;
10596;SDS011;5346;48.766;8.674;2023-04-29T03:21:22;7.90;;;5.00;;
10596;SDS011;5346;48.766;8.674;2023-04-29T03:23:57;5.55;;;4.68;;
10596;SDS011;5346;48.766;8.674;2023-04-29T03:26:25;6.93;;;4.43;;
10596;SDS011;5346;48.766;8.674;2023-04-29T03:28:58;5.22;;;4.57;;
10596;SDS011;5346;48.766;8.674;2023-04-29T03:31:25;6.30;;;4.68;;
10596;SDS011;5346;48.766;8.674;2023-04-29T03:34:00;5.15;;;4.55;;
10596;SDS011;5346;48.766;8.674;2023-04-29T03:36:27;10.05;;;4.97;;
10596;SDS011;5346;48.766;8.674;2023-04-29T03:39:00;8.35;;;4.75;;
10596;SDS011;5346;48.766;8.674;2023-04-29T03:41:34;5.95;;;4.32;;
10596;SDS011;5346;48.766;8.674;2023-04-29T03:44:08;5.50;;;4.65;;
10596;SDS011;5346;48.766;8.674;2023-04-29T03:46:43;4.28;;;3.88;;
10596;SDS011;5346;48.766;8.674;2023-04-29T03:49:16;7.47;;;4.40;;
10596;SDS011;5346;48.766;8.674;2023-04-29T03:51:50;5.97;;;4.60;;
10596;SDS011;5346;48.766;8.674;2023-04-29T03:54:18;5.13;;;4.60;;
10596;SDS011;5346;48.766;8.674;2023-04-29T03:56:52;7.30;;;5.07;;
10596;SDS011;5346;48.766;8.674;2023-04-29T03:59:21;6.27;;;5.50;;
10596;SDS011;5346;48.766;8.674;2023-04-29T04:01:48;6.30;;;5.70;;
10596;SDS011;5346;48.766;8.674;2023-04-29T04:04:23;9.48;;;5.75;;
10596;SDS011;5346;48.766;8.674;2023-04-29T04:06:50;10.07;;;5.77;;
10596;SDS011;5346;48.766;8.674;2023-04-29T04:09:24;10.83;;;6.60;;
10596;SDS011;5346;48.766;8.674;2023-04-29T04:11:52;9.90;;;6.93;;
10596;SDS011;5346;48.766;8.674;2023-04-29T04:14:26;7.67;;;6.80;;
10596;SDS011;5346;48.766;8.674;2023-04-29T04:16:59;8.60;;;7.20;;
10596;SDS011;5346;48.766;8.674;2023-04-29T04:19:32;10.20;;;8.47;;
10596;SDS011;5346;48.766;8.674;2023-04-29T04:22:06;11.27;;;9.13;;
10596;SDS011;5346;48.766;8.674;2023-04-29T04:24:35;10.90;;;9.48;;
10596;SDS011;5346;48.766;8.674;2023-04-29T04:27:08;9.33;;;8.43;;
10596;SDS011;5346;48.766;8.674;2023-04-29T04:29:36;10.67;;;8.37;;
10596;SDS011;5346;48.766;8.674;2023-04-29T04:32:04;10.10;;;8.20;;
10596;SDS011;5346;48.766;8.674;2023-04-29T04:34:37;9.30;;;8.30;;
10596;SDS011;5346;48.766;8.674;2023-04-29T04:37:05;8.33;;;7.47;;
10596;SDS011;5346;48.766;8.674;2023-04-29T04:39:38;8.33;;;7.53;;
10596;SDS011;5346;48.766;8.674;2023-04-29T04:42:06;9.17;;;7.60;;
10596;SDS011;5346;48.766;8.674;2023-04-29T04:44:39;8.90;;;7.53;;
10596;SDS011;5346;48.766;8.674;2023-04-29T04:47:13;10.77;;;8.57;;
10596;SDS011;5346;48.766;8.674;2023-04-29T04:49:47;8.90;;;8.00;;
10596;SDS011;5346;48.766;8.674;2023-04-29T04:52:24;8.93;;;8.02;;
10596;SDS011;5346;48.766;8.674;2023-04-29T04:54:58;8.52;;;7.63;;
10596;SDS011;5346;48.766;8.674;2023-04-29T04:57:26;13.40;;;6.88;;
10596;SDS011;5346;48.766;8.674;2023-04-29T05:00:00;9.68;;;6.82;;
10596;SDS011;5346;48.766;8.674;2023-04-29T05:02:27;8.40;;;6.85;;
10596;SDS011;5346;48.766;8.674;2023-04-29T05:05:02;7.32;;;6.20;;
10596;SDS011;5346;48.766;8.674;2023-04-29T05:07:29;6.22;;;5.60;;
10596;SDS011;5346;48.766;8.674;2023-04-29T05:09:58;7.23;;;6.17;;
10596;SDS011;5346;48.766;8.674;2023-04-29T05:12:32;6.20;;;5.50;;
10596;SDS011;5346;48.766;8.674;2023-04-29T05:15:07;6.00;;;5.40;;
10596;SDS011;5346;48.766;8.674;2023-04-29T05:17:47;7.28;;;5.40;;
10596;SDS011;5346;48.766;8.674;2023-04-29T05:20:27;5.85;;;5.25;;
10596;SDS011;5346;48.766;8.674;2023-04-29T05:23:02;9.30;;;5.85;;
10596;SDS011;5346;48.766;8.674;2023-04-29T05:25:29;6.10;;;4.90;;
10596;SDS011;5346;48.766;8.674;2023-04-29T05:28:02;5.35;;;4.85;;
10596;SDS011;5346;48.766;8.674;2023-04-29T05:30:36;5.03;;;4.53;;
10596;SDS011;5346;48.766;8.674;2023-04-29T05:33:04;5.28;;;4.70;;
10596;SDS011;5346;48.766;8.674;2023-04-29T05:35:37;4.70;;;3.90;;
10596;SDS011;5346;48.766;8.674;2023-04-29T05:38:04;4.28;;;3.88;;
10596;SDS011;5346;48.766;8.674;2023-04-29T05:40:38;5.53;;;3.60;;
10596;SDS011;5346;48.766;8.674;2023-04-29T05:43:06;4.18;;;3.60;;
10596;SDS011;5346;48.766;8.674;2023-04-29T05:45:39;3.42;;;3.10;;
10596;SDS011;5346;48.766;8.674;2023-04-29T05:48:07;4.60;;;3.47;;
10596;SDS011;5346;48.766;8.674;2023-04-29T05:50:41;3.78;;;3.35;;
10596;SDS011;5346;48.766;8.674;2023-04-29T05:53:14;2.97;;;2.78;;
10596;SDS011;5346;48.766;8.674;2023-04-29T05:55:48;3.10;;;2.78;;
10596;SDS011;5346;48.766;8.674;2023-04-29T05:58:16;3.17;;;2.88;;
10596;SDS011;5346;48.766;8.674;2023-04-29T06:00:50;4.00;;;3.28;;
10596;SDS011;5346;48.766;8.674;2023-04-29T06:03:18;3.78;;;3.35;;
10596;SDS011;5346;48.766;8.674;2023-04-29T06:05:52;4.40;;;3.42;;
10596;SDS011;5346;48.766;8.674;2023-04-29T06:08:48;6.78;;;3.60;;
10596;SDS011;5346;48.766;8.674;2023-04-29T06:11:18;6.13;;;3.70;;
10596;SDS011;5346;48.766;8.674;2023-04-29T06:13:53;4.45;;;3.72;;
10596;SDS011;5346;48.766;8.674;2023-04-29T06:16:27;4.10;;;3.60;;
10596;SDS011;5346;48.766;8.674;2023-04-29T06:19:01;3.75;;;3.25;;
10596;SDS011;5346;48.766;8.674;2023-04-29T06:21:28;4.38;;;3.83;;
10596;SDS011;5346;48.766;8.674;2023-04-29T06:24:03;4.80;;;3.85;;
10596;SDS011;5346;48.766;8.674;2023-04-29T06:26:31;4.50;;;3.55;;
10596;SDS011;5346;48.766;8.674;2023-04-29T06:29:05;3.55;;;3.25;;
10596;SDS011;5346;48.766;8.674;2023-04-29T06:31:33;3.90;;;3.50;;
10596;SDS011;5346;48.766;8.674;2023-04-29T06:34:00;5.65;;;3.15;;
10596;SDS011;5346;48.766;8.674;2023-04-29T06:36:34;6.47;;;3.35;;
10596;SDS011;5346;48.766;8.674;2023-04-29T06:39:01;4.72;;;3.20;;
10596;SDS011;5346;48.766;8.674;2023-04-29T06:41:37;3.83;;;3.20;;
10596;SDS011;5346;48.766;8.674;2023-04-29T06:44:12;4.07;;;2.95;;
10596;SDS011;5346;48.766;8.674;2023-04-29T06:46:47;3.33;;;2.88;;
10596;SDS011;5346;48.766;8.674;2023-04-29T06:49:14;3.33;;;3.03;;
10596;SDS011;5346;48.766;8.674;2023-04-29T06:51:48;3.72;;;3.00;;
10596;SDS011;5346;48.766;8.674;2023-04-29T06:54:21;2.67;;;2.47;;
10596;SDS011;5346;48.766;8.674;2023-04-29T06:56:56;3.63;;;3.33;;
10596;SDS011;5346;48.766;8.674;2023-04-29T06:59:23;4.10;;;3.10;;
10596;SDS011;5346;48.766;8.674;2023-04-29T07:01:58;3.17;;;2.85;;
10596;SDS011;5346;48.766;8.674;2023-04-29T07:04:25;2.85;;;2.60;;
10596;SDS011;5346;48.766;8.674;2023-04-29T07:07:00;4.30;;;2.75;;
10596;SDS011;5346;48.766;8.674;2023-04-29T07:09:30;3.75;;;2.72;;
10596;SDS011;5346;48.766;8.674;2023-04-29T07:12:04;4.68;;;2.88;;
10596;SDS011;5346;48.766;8.674;2023-04-29T07:14:32;4.95;;;2.70;;
10596;SDS011;5346;48.766;8.674;2023-04-29T07:17:12;3.35;;;2.88;;
10596;SDS011;5346;48.766;8.674;2023-04-29T07:19:46;2.75;;;2.38;;
10596;SDS011;5346;48.766;8.674;2023-04-29T07:22:27;4.10;;;2.42;;
10596;SDS011;5346;48.766;8.674;2023-04-29T07:24:55;2.15;;;1.95;;
10596;SDS011;5346;48.766;8.674;2023-04-29T07:27:28;2.03;;;1.83;;
10596;SDS011;5346;48.766;8.674;2023-04-29T07:29:58;2.20;;;2.00;;
10596;SDS011;5346;48.766;8.674;2023-04-29T07:32:36;2.20;;;2.00;;
10596;SDS011;5346;48.766;8.674;2023-04-29T07:35:05;2.85;;;1.83;;
10596;SDS011;5346;48.766;8.674;2023-04-29T07:37:39;2.28;;;1.70;;
10596;SDS011;5346;48.766;8.674;2023-04-29T07:40:14;1.85;;;1.50;;
10596;SDS011;5346;48.766;8.674;2023-04-29T07:42:49;1.88;;;1.63;;
10596;SDS011;5346;48.766;8.674;2023-04-29T07:45:23;2.03;;;1.48;;
10596;SDS011;5346;48.766;8.674;2023-04-29T07:47:57;1.55;;;1.45;;
10596;SDS011;5346;48.766;8.674;2023-04-29T07:50:25;1.42;;;1.33;;
10596;SDS011;5346;48.766;8.674;2023-04-29T07:53:00;1.50;;;1.33;;
10596;SDS011;5346;48.766;8.674;2023-04-29T07:55:28;2.15;;;1.40;;
10596;SDS011;5346;48.766;8.674;2023-04-29T07:58:03;4.68;;;1.90;;
10596;SDS011;5346;48.766;8.674;2023-04-29T08:00:30;1.65;;;1.45;;
10596;SDS011;5346;48.766;8.674;2023-04-29T08:03:04;1.45;;;1.30;;
10596;SDS011;5346;48.766;8.674;2023-04-29T08:05:39;1.60;;;1.50;;
10596;SDS011;5346;48.766;8.674;2023-04-29T08:08:14;1.25;;;1.15;;
10596;SDS011;5346;48.766;8.674;2023-04-29T08:10:48;3.55;;;1.23;;
10596;SDS011;5346;48.766;8.674;2023-04-29T08:13:15;3.67;;;1.40;;
10596;SDS011;5346;48.766;8.674;2023-04-29T08:15:43;2.40;;;1.27;;
10596;SDS011;5346;48.766;8.674;2023-04-29T08:18:25;2.92;;;1.70;;
10596;SDS011;5346;48.766;8.674;2023-04-29T08:21:01;2.20;;;2.00;;
10596;SDS011;5346;48.766;8.674;2023-04-29T08:23:37;3.22;;;1.90;;
10596;SDS011;5346;48.766;8.674;2023-04-29T08:26:06;3.10;;;2.00;;
10596;SDS011;5346;48.766;8.674;2023-04-29T08:28:46;1.85;;;1.70;;
10596;SDS011;5346;48.766;8.674;2023-04-29T08:31:17;2.85;;;1.60;;
10596;SDS011;5346;48.766;8.674;2023-04-29T08:33:56;3.30;;;1.75;;
10596;SDS011;5346;48.766;8.674;2023-04-29T08:36:24;1.85;;;1.70;;
10596;SDS011;5346;48.766;8.674;2023-04-29T08:39:00;2.38;;;2.17;;
10596;SDS011;5346;48.766;8.674;2023-04-29T08:41:35;2.28;;;2.05;;
10596;SDS011;5346;48.766;8.674;2023-04-29T08:44:11;4.63;;;2.20;;
10596;SDS011;5346;48.766;8.674;2023-04-29T08:46:46;2.05;;;1.95;;
10596;SDS011;5346;48.766;8.674;2023-04-29T08:49:21;2.55;;;2.35;;
10596;SDS011;5346;48.766;8.674;2023-04-29T08:51:49;4.38;;;2.40;;
10596;SDS011;5346;48.766;8.674;2023-04-29T08:54:26;2.88;;;2.30;;
10596;SDS011;5346;48.766;8.674;2023-04-29T08:57:03;2.63;;;2.15;;
10596;SDS011;5346;48.766;8.674;2023-04-29T08:59:32;3.85;;;2.50;;
10596;SDS011;5346;48.766;8.674;2023-04-29T09:02:08;2.60;;;2.40;;
10596;SDS011;5346;48.766;8.674;2023-04-29T09:05:15;2.47;;;2.13;;
10596;SDS011;5346;48.766;8.674;2023-04-29T09:07:46;2.30;;;2.10;;
10596;SDS011;5346;48.766;8.674;2023-04-29T09:10:16;3.17;;;2.70;;
10596;SDS011;5346;48.766;8.674;2023-04-29T09:12:51;2.70;;;2.50;;
10596;SDS011;5346;48.766;8.674;2023-04-29T09:15:25;4.03;;;2.92;;
10596;SDS011;5346;48.766;8.674;2023-04-29T09:17:59;4.38;;;2.50;;
10596;SDS011;5346;48.766;8.674;2023-04-29T09:20:40;6.18;;;2.58;;
10596;SDS011;5346;48.766;8.674;2023-04-29T09:23:07;4.18;;;2.63;;
10596;SDS011;5346;48.766;8.674;2023-04-29T09:25:41;2.50;;;2.22;;
10596;SDS011;5346;48.766;8.674;2023-04-29T09:28:31;3.30;;;2.90;;
10596;SDS011;5346;48.766;8.674;2023-04-29T09:31:06;3.75;;;2.40;;
10596;SDS011;5346;48.766;8.674;2023-04-29T09:34:15;5.97;;;2.60;;
10596;SDS011;5346;48.766;8.674;2023-04-29T09:39:21;3.22;;;2.78;;
10596;SDS011;5346;48.766;8.674;2023-04-29T09:44:33;5.20;;;2.80;;
10596;SDS011;5346;48.766;8.674;2023-04-29T09:47:11;6.32;;;3.35;;
10596;SDS011;5346;48.766;8.674;2023-04-29T09:49:42;6.00;;;3.20;;
10596;SDS011;5346;48.766;8.674;2023-04-29T09:52:19;3.92;;;3.13;;
10596;SDS011;5346;48.766;8.674;2023-04-29T09:54:53;4.10;;;3.30;;
10596;SDS011;5346;48.766;8.674;2023-04-29T09:57:39;5.93;;;2.85;;
10596;SDS011;5346;48.766;8.674;2023-04-29T10:00:16;3.15;;;2.80;;
10596;SDS011;5346;48.766;8.674;2023-04-29T10:02:53;5.05;;;2.97;;
10596;SDS011;5346;48.766;8.674;2023-04-29T10:05:26;5.20;;;2.70;;
10596;SDS011;5346;48.766;8.674;2023-04-29T10:08:03;3.92;;;3.40;;
10596;SDS011;5346;48.766;8.674;2023-04-29T10:10:37;4.13;;;3.25;;
10596;SDS011;5346;48.766;8.674;2023-04-29T10:13:15;4.45;;;3.40;;
10596;SDS011;5346;48.766;8.674;2023-04-29T10:15:51;6.18;;;2.97;;
10596;SDS011;5346;48.766;8.674;2023-04-29T10:18:53;6.45;;;2.95;;
10596;SDS011;5346;48.766;8.674;2023-04-29T10:21:29;3.58;;;3.28;;
10596;SDS011;5346;48.766;8.674;2023-04-29T10:24:06;3.95;;;3.40;;
10596;SDS011;5346;48.766;8.674;2023-04-29T10:26:43;3.50;;;3.20;;
10596;SDS011;5346;48.766;8.674;2023-04-29T10:29:19;4.25;;;3.45;;
10596;SDS011;5346;48.766;8.674;2023-04-29T10:31:51;4.38;;;3.97;;
10596;SDS011;5346;48.766;8.674;2023-04-29T10:34:27;6.70;;;3.97;;
10596;SDS011;5346;48.766;8.674;2023-04-29T10:37:05;6.50;;;4.40;;
10596;SDS011;5346;48.766;8.674;2023-04-29T10:39:44;4.80;;;3.80;;
10596;SDS011;5346;48.766;8.674;2023-04-29T10:42:45;4.05;;;3.65;;
10596;SDS011;5346;48.766;8.674;2023-04-29T10:48:08;4.47;;;3.70;;
10596;SDS011;5346;48.766;8.674;2023-04-29T10:53:19;3.75;;;3.38;;
10596;SDS011;5346;48.766;8.674;2023-04-29T10:55:56;6.03;;;3.85;;
10596;SDS011;5346;48.766;8.674;2023-04-29T10:58:50;4.95;;;3.95;;
10596;SDS011;5346;48.766;8.674;2023-04-29T11:01:39;5.90;;;4.13;;
10596;SDS011;5346;48.766;8.674;2023-04-29T11:04:14;6.47;;;4.13;;
10596;SDS011;5346;48.766;8.674;2023-04-29T11:06:44;6.40;;;4.00;;
10596;SDS011;5346;48.766;8.674;2023-04-29T11:14:35;4.47;;;3.90;;
10596;SDS011;5346;48.766;8.674;2023-04-29T11:17:15;4.90;;;3.83;;
10596;SDS011;5346;48.766;8.674;2023-04-29T11:20:08;5.15;;;3.80;;
10596;SDS011;5346;48.766;8.674;2023-04-29T11:22:39;4.78;;;3.33;;
10596;SDS011;5346;48.766;8.674;2023-04-29T11:25:16;4.70;;;3.42;;
10596;SDS011;5346;48.766;8.674;2023-04-29T11:27:44;4.30;;;3.03;;
10596;SDS011;5346;48.766;8.674;2023-04-29T11:30:15;4.18;;;3.20;;
10596;SDS011;5346;48.766;8.674;2023-04-29T11:32:50;3.28;;;2.90;;
10596;SDS011;5346;48.766;8.674;2023-04-29T11:35:25;4.03;;;3.10;;
10596;SDS011;5346;48.766;8.674;2023-04-29T11:37:52;4.32;;;2.60;;
10596;SDS011;5346;48.766;8.674;2023-04-29T11:40:27;2.97;;;2.67;;
10596;SDS011;5346;48.766;8.674;2023-04-29T11:42:54;4.20;;;3.67;;
10596;SDS011;5346;48.766;8.674;2023-04-29T11:45:28;4.35;;;3.13;;
10596;SDS011;5346;48.766;8.674;2023-04-29T11:47:55;3.72;;;3.13;;
10596;SDS011;5346;48.766;8.674;2023-04-29T11:50:30;6.38;;;2.83;;
10596;SDS011;5346;48.766;8.674;2023-04-29T11:52:59;3.13;;;2.50;;
10596;SDS011;5346;48.766;8.674;2023-04-29T11:55:27;2.80;;;2.50;;
10596;SDS011;5346;48.766;8.674;2023-04-29T11:58:03;3.47;;;2.70;;
10596;SDS011;5346;48.766;8.674;2023-04-29T12:00:30;2.55;;;2.30;;
10596;SDS011;5346;48.766;8.674;2023-04-29T12:05:53;3.13;;;2.55;;
10596;SDS011;5346;48.766;8.674;2023-04-29T12:08:25;4.00;;;2.50;;
10596;SDS011;5346;48.766;8.674;2023-04-29T12:11:01;2.38;;;2.17;;
10596;SDS011;5346;48.766;8.674;2023-04-29T12:13:31;3.03;;;2.53;;
10596;SDS011;5346;48.766;8.674;2023-04-29T12:16:09;3.13;;;2.67;;
10596;SDS011;5346;48.766;8.674;2023-04-29T12:18:36;2.92;;;2.00;;
10596;SDS011;5346;48.766;8.674;2023-04-29T12:21:24;4.72;;;2.22;;
10596;SDS011;5346;48.766;8.674;2023-04-29T12:23:53;3.97;;;2.20;;
10596;SDS011;5346;48.766;8.674;2023-04-29T12:26:33;5.88;;;2.10;;
10596;SDS011;5346;48.766;8.674;2023-04-29T12:29:09;1.70;;;1.60;;
10596;SDS011;5346;48.766;8.674;2023-04-29T12:31:45;2.17;;;1.98;;
10596;SDS011;5346;48.766;8.674;2023-04-29T12:34:13;7.00;;;6.15;;
10596;SDS011;5346;48.766;8.674;2023-04-29T12:36:41;8.50;;;5.63;;
10596;SDS011;5346;48.766;8.674;2023-04-29T12:39:15;8.05;;;5.63;;
10596;SDS011;5346;48.766;8.674;2023-04-29T12:41:43;8.95;;;5.70;;
10596;SDS011;5346;48.766;8.674;2023-04-29T12:44:11;8.98;;;6.25;;
10596;SDS011;5346;48.766;8.674;2023-04-29T12:46:45;6.88;;;6.18;;
10596;SDS011;5346;48.766;8.674;2023-04-29T12:49:13;7.65;;;6.78;;
10596;SDS011;5346;48.766;8.674;2023-04-29T12:51:50;7.90;;;7.10;;
10596;SDS011;5346;48.766;8.674;2023-04-29T12:54:25;7.82;;;7.00;;
10596;SDS011;5346;48.766;8.674;2023-04-29T12:56:59;9.23;;;7.03;;
10596;SDS011;5346;48.766;8.674;2023-04-29T12:59:31;11.15;;;8.73;;
10596;SDS011;5346;48.766;8.674;2023-04-29T13:02:06;8.80;;;7.90;;
10596;SDS011;5346;48.766;8.674;2023-04-29T13:04:42;9.48;;;8.18;;
10596;SDS011;5346;48.766;8.674;2023-04-29T13:07:16;12.80;;;8.25;;
10596;SDS011;5346;48.766;8.674;2023-04-29T13:09:44;9.73;;;8.38;;
10596;SDS011;5346;48.766;8.674;2023-04-29T13:12:18;11.95;;;9.00;;
10596;SDS011;5346;48.766;8.674;2023-04-29T13:14:59;10.07;;;8.70;;
10596;SDS011;5346;48.766;8.674;2023-04-29T13:17:34;10.63;;;8.27;;
10596;SDS011;5346;48.766;8.674;2023-04-29T13:20:22;10.93;;;8.10;;
10596;SDS011;5346;48.766;8.674;2023-04-29T13:22:56;8.50;;;6.93;;
10596;SDS011;5346;48.766;8.674;2023-04-29T13:25:23;8.93;;;7.07;;
10596;SDS011;5346;48.766;8.674;2023-04-29T13:27:57;8.18;;;7.30;;
10596;SDS011;5346;48.766;8.674;2023-04-29T13:30:24;10.77;;;7.75;;
10596;SDS011;5346;48.766;8.674;2023-04-29T13:33:01;8.63;;;6.97;;
10596;SDS011;5346;48.766;8.674;2023-04-29T13:35:38;9.13;;;7.00;;
10596;SDS011;5346;48.766;8.674;2023-04-29T13:38:14;8.73;;;7.00;;
10596;SDS011;5346;48.766;8.674;2023-04-29T13:40:48;8.82;;;7.22;;
10596;SDS011;5346;48.766;8.674;2023-04-29T13:43:27;10.13;;;7.72;;
10596;SDS011;5346;48.766;8.674;2023-04-29T13:46:05;10.98;;;7.05;;
10596;SDS011;5346;48.766;8.674;2023-04-29T13:48:40;9.25;;;7.85;;
10596;SDS011;5346;48.766;8.674;2023-04-29T13:51:17;10.73;;;8.23;;
10596;SDS011;5346;48.766;8.674;2023-04-29T13:54:11;9.43;;;8.18;;
10596;SDS011;5346;48.766;8.674;2023-04-29T13:56:41;10.27;;;7.78;;
10596;SDS011;5346;48.766;8.674;2023-04-29T13:59:19;9.85;;;8.20;;
10596;SDS011;5346;48.766;8.674;2023-04-29T14:01:49;10.75;;;8.07;;
10596;SDS011;5346;48.766;8.674;2023-04-29T14:04:27;10.93;;;8.45;;
10596;SDS011;5346;48.766;8.674;2023-04-29T14:06:55;12.32;;;7.97;;
10596;SDS011;5346;48.766;8.674;2023-04-29T14:09:31;10.60;;;6.97;;
10596;SDS011;5346;48.766;8.674;2023-04-29T14:11:58;8.57;;;7.28;;
10596;SDS011;5346;48.766;8.674;2023-04-29T14:14:32;10.55;;;7.93;;
10596;SDS011;5346;48.766;8.674;2023-04-29T14:17:06;12.95;;;7.75;;
10596;SDS011;5346;48.766;8.674;2023-04-29T14:19:41;11.73;;;7.95;;
10596;SDS011;5346;48.766;8.674;2023-04-29T14:22:15;11.55;;;8.30;;
10596;SDS011;5346;48.766;8.674;2023-04-29T14:24:49;11.02;;;8.90;;
10596;SDS011;5346;48.766;8.674;2023-04-29T14:27:23;14.77;;;8.80;;
10596;SDS011;5346;48.766;8.674;2023-04-29T14:30:00;9.82;;;7.93;;
10596;SDS011;5346;48.766;8.674;2023-04-29T14:32:28;10.32;;;7.80;;
10596;SDS011;5346;48.766;8.674;2023-04-29T14:35:02;10.23;;;7.93;;
10596;SDS011;5346;48.766;8.674;2023-04-29T14:37:29;9.55;;;7.28;;
10596;SDS011;5346;48.766;8.674;2023-04-29T14:40:03;7.97;;;6.85;;
10596;SDS011;5346;48.766;8.674;2023-04-29T14:42:31;9.80;;;7.47;;
10596;SDS011;5346;48.766;8.674;2023-04-29T14:45:05;9.48;;;7.78;;
10596;SDS011;5346;48.766;8.674;2023-04-29T14:47:34;10.48;;;7.88;;
10596;SDS011;5346;48.766;8.674;2023-04-29T14:50:07;10.43;;;8.40;;
10596;SDS011;5346;48.766;8.674;2023-04-29T14:52:37;8.48;;;7.32;;
10596;SDS011;5346;48.766;8.674;2023-04-29T14:55:11;11.00;;;8.07;;
10596;SDS011;5346;48.766;8.674;2023-04-29T14:57:38;10.85;;;7.82;;
10596;SDS011;5346;48.766;8.674;2023-04-29T15:00:12;9.77;;;7.80;;
10596;SDS011;5346;48.766;8.674;2023-04-29T15:02:41;8.85;;;7.95;;
10596;SDS011;5346;48.766;8.674;2023-04-29T15:05:15;10.13;;;8.45;;
10596;SDS011;5346;48.766;8.674;2023-04-29T15:07:44;9.85;;;8.55;;
10596;SDS011;5346;48.766;8.674;2023-04-29T15:10:18;15.23;;;7.82;;
10596;SDS011;5346;48.766;8.674;2023-04-29T15:12:46;9.40;;;7.63;;
10596;SDS011;5346;48.766;8.674;2023-04-29T15:15:21;11.88;;;9.80;;
10596;SDS011;5346;48.766;8.674;2023-04-29T15:17:49;10.40;;;7.35;;
10596;SDS011;5346;48.766;8.674;2023-04-29T15:20:24;12.85;;;11.13;;
10596;SDS011;5346;48.766;8.674;2023-04-29T15:22:59;10.02;;;7.70;;
10596;SDS011;5346;48.766;8.674;2023-04-29T15:25:33;10.85;;;7.88;;
10596;SDS011;5346;48.766;8.674;2023-04-29T15:28:02;11.10;;;8.30;;
10596;SDS011;5346;48.766;8.674;2023-04-29T15:30:40;11.63;;;8.63;;
10596;SDS011;5346;48.766;8.674;2023-04-29T15:33:16;10.40;;;8.55;;
10596;SDS011;5346;48.766;8.674;2023-04-29T15:35:50;9.82;;;7.32;;
10596;SDS011;5346;48.766;8.674;2023-04-29T15:38:26;11.32;;;8.60;;
10596;SDS011;5346;48.766;8.674;2023-04-29T15:41:01;10.30;;;8.20;;
10596;SDS011;5346;48.766;8.674;2023-04-29T15:43:36;10.65;;;8.15;;
10596;SDS011;5346;48.766;8.674;2023-04-29T15:46:07;12.20;;;7.78;;
10596;SDS011;5346;48.766;8.674;2023-04-29T15:48:42;11.68;;;8.80;;
10596;SDS011;5346;48.766;8.674;2023-04-29T15:51:18;11.15;;;8.15;;
10596;SDS011;5346;48.766;8.674;2023-04-29T15:53:46;9.65;;;8.43;;
10596;SDS011;5346;48.766;8.674;2023-04-29T15:56:23;11.52;;;8.43;;
10596;SDS011;5346;48.766;8.674;2023-04-29T15:58:52;14.38;;;8.88;;
10596;SDS011;5346;48.766;8.674;2023-04-29T16:01:27;11.45;;;8.52;;
10596;SDS011;5346;48.766;8.674;2023-04-29T16:03:54;12.48;;;8.75;;